createdAt,value
2018-03-02T00:00:57.756Z,83.34
2018-03-02T00:01:57.761Z,83.62
2018-03-02T00:02:57.770Z,83.62
2018-03-02T00:03:57.776Z,83.44
2018-03-02T00:05:12.550Z,83.53
2018-03-02T00:05:57.794Z,83.44
2018-03-02T00:06:57.807Z,83.44
2018-03-02T00:07:57.812Z,84.09
2018-03-02T00:08:57.817Z,83.62
2018-03-02T00:09:58.043Z,84.28
2018-03-02T00:10:57.832Z,84.19
2018-03-02T00:11:57.838Z,83.91
2018-03-02T00:12:57.845Z,84.28
2018-03-02T00:13:57.852Z,84.19
2018-03-02T00:14:57.605Z,83.91
2018-03-02T00:15:57.871Z,84.38
2018-03-02T00:16:57.878Z,84.47
2018-03-02T00:17:57.884Z,84.09
2018-03-02T00:18:57.901Z,84.19
2018-03-02T00:19:57.898Z,84.38
2018-03-02T00:21:12.571Z,84.19
2018-03-02T00:22:57.976Z,83.72
2018-03-02T00:23:57.673Z,84.28
2018-03-02T00:24:57.679Z,84.47
2018-03-02T00:25:57.690Z,84.28
2018-03-02T00:26:57.696Z,84.28
2018-03-02T00:27:57.961Z,84.19
2018-03-02T00:28:58.008Z,84.56
2018-03-02T00:29:57.972Z,84.38
2018-03-02T00:30:57.727Z,84.38
2018-03-02T00:31:57.734Z,84.38
2018-03-02T00:32:57.742Z,84.19
2018-03-02T00:34:58.013Z,84.19
2018-03-02T00:35:57.805Z,84.28
2018-03-02T00:37:12.692Z,84.38
2018-03-02T00:37:58.033Z,84.56
2018-03-02T00:38:58.046Z,84.19
2018-03-02T00:39:58.050Z,84.75
2018-03-02T00:40:58.057Z,84.66
2018-03-02T00:41:57.809Z,84.75
2018-03-02T00:42:58.071Z,84.38
2018-03-02T00:43:58.090Z,85.13
2018-03-02T00:44:57.831Z,84.94
2018-03-02T00:45:58.095Z,84.85
2018-03-02T00:46:58.100Z,85.13
2018-03-02T00:47:58.113Z,85.32
2018-03-02T00:48:57.861Z,85.13
2018-03-02T00:49:58.144Z,84.94
2018-03-02T00:50:58.131Z,84.85
2018-03-02T00:52:12.806Z,84.85
2018-03-02T00:52:58.155Z,84.85
2018-03-02T00:55:58.171Z,85.13
2018-03-02T00:56:58.177Z,85.22
2018-03-02T00:57:58.218Z,84.85
2018-03-02T00:58:58.196Z,84.94
2018-03-02T00:59:58.203Z,84.75
2018-03-02T01:00:58.206Z,84.47
2018-03-02T01:01:58.236Z,84.47
2018-03-02T01:02:58.222Z,84.56
2018-03-02T01:03:58.236Z,85.7
2018-03-02T01:04:58.261Z,85.32
2018-03-02T01:05:58.242Z,84.75
2018-03-02T01:06:58.257Z,85.04
2018-03-02T01:07:58.261Z,85.13
2018-03-02T01:08:58.274Z,85.22
2018-03-02T01:09:58.274Z,84.85
2018-03-02T01:10:58.280Z,84.94
2018-03-02T01:11:58.290Z,85.13
2018-03-02T01:12:58.301Z,85.41
2018-03-02T01:13:58.303Z,85.04
2018-03-02T01:14:58.057Z,85.32
2018-03-02T01:15:58.318Z,85.32
2018-03-02T01:16:58.326Z,85.6
2018-03-02T01:17:58.337Z,85.79
2018-03-02T01:18:58.343Z,85.51
2018-03-02T01:19:58.347Z,85.51
2018-03-02T01:20:58.359Z,85.41
2018-03-02T01:21:58.364Z,85.41
2018-03-02T01:22:58.370Z,85.6
2018-03-02T01:24:13.044Z,85.32
2018-03-02T01:24:58.384Z,85.51
2018-03-02T01:25:58.397Z,85.41
2018-03-02T01:26:58.400Z,85.51
2018-03-02T01:27:58.409Z,85.41
2018-03-02T01:28:58.416Z,85.41
2018-03-02T01:29:58.430Z,85.7
2018-03-02T01:30:58.430Z,85.41
2018-03-02T01:31:58.440Z,85.88
2018-03-02T01:32:58.191Z,85.98
2018-03-02T01:33:58.452Z,85.88
2018-03-02T01:34:58.458Z,85.98
2018-03-02T01:35:58.468Z,85.98
2018-03-02T01:36:58.476Z,86.07
2018-03-02T01:37:58.485Z,85.88
2018-03-02T01:38:58.496Z,85.7
2018-03-02T01:40:13.164Z,85.7
2018-03-02T01:40:58.508Z,85.7
2018-03-02T01:41:58.517Z,85.98
2018-03-02T01:42:58.521Z,86.07
2018-03-02T01:43:58.532Z,85.7
2018-03-02T01:44:58.536Z,85.98
2018-03-02T01:45:58.541Z,86.73
2018-03-02T01:46:58.547Z,86.73
2018-03-02T01:47:58.555Z,86.64
2018-03-02T01:48:58.563Z,86.64
2018-03-02T01:49:58.571Z,86.64
2018-03-02T01:50:58.576Z,86.26
2018-03-02T01:52:58.339Z,86.64
2018-03-02T01:53:58.601Z,86.64
2018-03-02T01:54:58.610Z,86.73
2018-03-02T01:56:13.281Z,86.64
2018-03-02T01:57:58.375Z,86.64
2018-03-02T01:58:58.640Z,86.54
2018-03-02T01:59:58.389Z,86.83
2018-03-02T02:00:58.394Z,86.36
2018-03-02T02:01:58.656Z,86.54
2018-03-02T02:02:58.409Z,86.64
2018-03-02T02:03:58.670Z,86.54
2018-03-02T02:04:58.679Z,86.83
2018-03-02T02:05:58.431Z,86.54
2018-03-02T02:06:58.692Z,86.83
2018-03-02T02:07:58.704Z,86.73
2018-03-02T02:08:58.708Z,86.64
2018-03-02T02:09:58.764Z,86.36
2018-03-02T02:10:58.468Z,86.64
2018-03-02T02:12:13.398Z,87.49
2018-03-02T02:12:58.737Z,87.02
2018-03-02T02:14:58.755Z,87.77
2018-03-02T02:16:58.775Z,87.3
2018-03-02T02:17:58.774Z,87.39
2018-03-02T02:18:58.787Z,87.39
2018-03-02T02:19:58.853Z,87.86
2018-03-02T02:20:58.796Z,87.86
2018-03-02T02:21:58.815Z,87.58
2018-03-02T02:22:58.813Z,87.39
2018-03-02T02:23:58.564Z,87.68
2018-03-02T02:24:58.829Z,87.68
2018-03-02T02:25:58.832Z,87.68
2018-03-02T02:27:13.510Z,87.77
2018-03-02T02:27:58.852Z,87.77
2018-03-02T02:28:58.855Z,87.58
2018-03-02T02:29:58.863Z,87.68
2018-03-02T02:30:58.876Z,87.68
2018-03-02T02:31:58.626Z,87.86
2018-03-02T02:32:58.884Z,88.15
2018-03-02T02:33:58.892Z,87.68
2018-03-02T02:34:58.905Z,87.96
2018-03-02T02:35:58.923Z,87.96
2018-03-02T02:36:58.914Z,88.15
2018-03-02T02:37:58.932Z,88.05
2018-03-02T02:38:58.936Z,88.05
2018-03-02T02:39:58.935Z,88.62
2018-03-02T02:40:58.947Z,88.34
2018-03-02T02:41:58.955Z,88.52
2018-03-02T02:42:58.961Z,88.48
2018-03-02T02:44:58.977Z,88.52
2018-03-02T02:45:58.982Z,88.34
2018-03-02T02:46:58.740Z,89.09
2018-03-02T02:47:58.740Z,88.95
2018-03-02T02:48:59.012Z,89.09
2018-03-02T02:49:59.025Z,88.9
2018-03-02T02:50:58.760Z,88.9
2018-03-02T02:51:59.027Z,88.81
2018-03-02T02:52:59.037Z,88.81
2018-03-02T02:53:59.045Z,88.81
2018-03-02T02:54:59.066Z,88.9
2018-03-02T02:55:59.054Z,89
2018-03-02T02:56:59.063Z,88.9
2018-03-02T02:57:59.068Z,89
2018-03-02T02:59:13.742Z,88.76
2018-03-02T02:59:59.106Z,88.81
2018-03-02T03:00:59.091Z,88.81
2018-03-02T03:02:59.110Z,89
2018-03-02T03:03:59.122Z,88.62
2018-03-02T03:04:59.125Z,88.9
2018-03-02T03:05:59.128Z,88.95
2018-03-02T03:06:58.877Z,88.81
2018-03-02T03:07:58.885Z,89
2018-03-02T03:08:59.147Z,88.81
2018-03-02T03:09:59.156Z,88.9
2018-03-02T03:10:59.163Z,88.9
2018-03-02T03:11:59.168Z,89
2018-03-02T03:12:59.175Z,88.9
2018-03-02T03:13:58.928Z,88.9
2018-03-02T03:15:13.859Z,88.67
2018-03-02T03:15:59.202Z,89
2018-03-02T03:16:58.950Z,89
2018-03-02T03:18:59.225Z,88.85
2018-03-02T03:20:59.233Z,88.76
2018-03-02T03:21:59.243Z,88.95
2018-03-02T03:22:59.249Z,88.76
2018-03-02T03:23:59.254Z,88.67
2018-03-02T03:24:59.264Z,88.67
2018-03-02T03:25:59.274Z,88.95
2018-03-02T03:26:59.023Z,88.85
2018-03-02T03:27:59.284Z,89.14
2018-03-02T03:28:59.291Z,88.85
2018-03-02T03:29:59.047Z,89.14
2018-03-02T03:31:13.975Z,89.04
2018-03-02T03:31:59.313Z,88.95
2018-03-02T03:33:59.328Z,89.14
2018-03-02T03:35:59.343Z,89.42
2018-03-02T03:36:59.351Z,88.67
2018-03-02T03:37:59.357Z,88.95
2018-03-02T03:38:59.367Z,89.04
2018-03-02T03:39:59.471Z,89.61
2018-03-02T03:40:59.382Z,89.42
2018-03-02T03:41:59.385Z,89.04
2018-03-02T03:42:59.393Z,89.42
2018-03-02T03:43:59.400Z,89.42
2018-03-02T03:44:59.408Z,89.32
2018-03-02T03:45:59.417Z,89.14
2018-03-02T03:47:14.091Z,89.32
2018-03-02T03:47:59.429Z,89.32
2018-03-02T03:48:59.436Z,89.32
2018-03-02T03:50:59.451Z,89.32
2018-03-02T03:51:59.458Z,89.42
2018-03-02T03:52:59.470Z,89.42
2018-03-02T03:53:59.471Z,89.51
2018-03-02T03:54:59.480Z,89.32
2018-03-02T03:55:59.493Z,89.42
2018-03-02T03:56:59.506Z,89.51
2018-03-02T03:57:59.504Z,89.51
2018-03-02T03:58:59.511Z,89.42
2018-03-02T03:59:59.516Z,89.23
2018-03-02T04:00:59.524Z,89.42
2018-03-02T04:02:14.203Z,89.32
2018-03-02T04:02:59.538Z,89.32
2018-03-02T04:03:59.545Z,89.42
2018-03-02T04:04:59.555Z,89.14
2018-03-02T04:05:59.562Z,89.23
2018-03-02T04:06:59.568Z,89.23
2018-03-02T04:07:59.573Z,89.61
2018-03-02T04:08:59.582Z,89.42
2018-03-02T04:09:59.592Z,89.89
2018-03-02T04:10:59.607Z,89.89
2018-03-02T04:11:59.607Z,89.61
2018-03-02T04:12:59.609Z,89.61
2018-03-02T04:13:59.362Z,89.98
2018-03-02T04:14:59.626Z,89.51
2018-03-02T04:15:59.630Z,89.51
2018-03-02T04:16:59.638Z,89.51
2018-03-02T04:17:59.650Z,89.32
2018-03-02T04:19:59.665Z,89.61
2018-03-02T04:20:59.674Z,89.89
2018-03-02T04:22:59.682Z,90.17
2018-03-02T04:23:59.694Z,89.7
2018-03-02T04:24:59.699Z,89.61
2018-03-02T04:25:59.703Z,89.79
2018-03-02T04:26:59.710Z,90.08
2018-03-02T04:27:59.717Z,90.08
2018-03-02T04:28:59.731Z,90.08
2018-03-02T04:29:59.737Z,90.08
2018-03-02T04:30:59.759Z,89.79
2018-03-02T04:31:59.745Z,89.79
2018-03-02T04:32:59.754Z,89.7
2018-03-02T04:34:14.428Z,90.08
2018-03-02T04:34:59.775Z,89.7
2018-03-02T04:35:59.774Z,89.79
2018-03-02T04:36:59.782Z,89.51
2018-03-02T04:39:59.804Z,89.7
2018-03-02T04:40:59.821Z,90.17
2018-03-02T04:41:59.821Z,90.17
2018-03-02T04:42:59.834Z,89.79
2018-03-02T04:43:59.577Z,90.08
2018-03-02T04:44:59.839Z,90.64
2018-03-02T04:45:59.848Z,90.55
2018-03-02T04:46:59.854Z,90.26
2018-03-02T04:47:59.864Z,90.64
2018-03-02T04:48:59.867Z,90.17
2018-03-02T04:50:14.543Z,90.36
2018-03-02T04:50:59.882Z,90.45
2018-03-02T04:51:59.889Z,90.55
2018-03-02T04:52:59.896Z,90.08
2018-03-02T04:53:59.910Z,90.17
2018-03-02T04:55:59.921Z,90.45
2018-03-02T04:56:59.933Z,90.55
2018-03-02T04:57:59.932Z,90.64
2018-03-02T04:58:59.939Z,90.36
2018-03-02T04:59:59.691Z,90.26
2018-03-02T05:00:59.954Z,90.17
2018-03-02T05:01:59.711Z,90.36
2018-03-02T05:02:59.966Z,90.64
2018-03-02T05:03:59.973Z,90.55
2018-03-02T05:04:59.986Z,90.83
2018-03-02T05:06:14.658Z,90.55
2018-03-02T05:07:00.007Z,90.64
2018-03-02T05:08:00.007Z,90.73
2018-03-02T05:11:00.030Z,90.92
2018-03-02T05:12:00.032Z,91.11
2018-03-02T05:13:00.041Z,91.02
2018-03-02T05:14:00.050Z,91.3
2018-03-02T05:15:00.052Z,90.92
2018-03-02T05:16:00.062Z,90.92
2018-03-02T05:17:00.067Z,90.83
2018-03-02T05:18:00.075Z,90.92
2018-03-02T05:19:00.081Z,91.02
2018-03-02T05:20:00.090Z,91.11
2018-03-02T05:20:59.840Z,91.11
2018-03-02T05:22:14.770Z,91.02
2018-03-02T05:22:59.855Z,91.02
2018-03-02T05:24:00.121Z,91.02
2018-03-02T05:25:00.163Z,91.02
2018-03-02T05:26:00.132Z,91.02
2018-03-02T05:26:59.887Z,91.11
2018-03-02T05:28:00.145Z,91.11
2018-03-02T05:29:00.152Z,91.39
2018-03-02T05:29:59.904Z,91.49
2018-03-02T05:31:00.172Z,91.58
2018-03-02T05:32:00.178Z,91.58
2018-03-02T05:33:00.181Z,91.49
2018-03-02T05:34:00.194Z,91.58
2018-03-02T05:35:00.202Z,91.49
2018-03-02T05:36:00.201Z,91.96
2018-03-02T05:37:14.878Z,91.67
2018-03-02T05:38:00.216Z,91.86
2018-03-02T05:39:00.224Z,91.77
2018-03-02T05:40:00.235Z,91.86
2018-03-02T05:41:00.238Z,91.86
2018-03-02T05:42:00.245Z,91.86
2018-03-02T05:43:00.256Z,91.67
2018-03-02T05:44:00.312Z,91.96
2018-03-02T05:45:00.267Z,91.86
2018-03-02T05:46:00.277Z,91.67
2018-03-02T05:47:00.284Z,91.67
2018-03-02T05:48:00.287Z,91.58
2018-03-02T05:49:00.294Z,92.05
2018-03-02T05:50:00.046Z,91.77
2018-03-02T05:51:00.306Z,92.15
2018-03-02T05:52:00.315Z,92.05
2018-03-02T05:53:00.322Z,91.77
2018-03-02T05:54:00.075Z,91.86
2018-03-02T05:55:00.337Z,91.77
2018-03-02T05:59:00.370Z,92.33
2018-03-02T06:00:00.371Z,92.05
2018-03-02T06:01:00.383Z,92.24
2018-03-02T06:02:00.137Z,92.05
2018-03-02T06:03:00.393Z,92.24
2018-03-02T06:04:00.401Z,91.67
2018-03-02T06:05:00.406Z,92.05
2018-03-02T06:06:00.414Z,91.67
2018-03-02T06:07:00.167Z,91.77
2018-03-02T06:08:00.428Z,92.15
2018-03-02T06:09:15.106Z,91.77
2018-03-02T06:10:00.443Z,92.05
2018-03-02T06:13:00.462Z,91.96
2018-03-02T06:14:00.470Z,91.67
2018-03-02T06:15:00.479Z,92.05
2018-03-02T06:16:00.229Z,91.96
2018-03-02T06:17:00.492Z,91.49
2018-03-02T06:18:00.499Z,91.86
2018-03-02T06:19:00.506Z,92.05
2018-03-02T06:20:00.515Z,91.58
2018-03-02T06:21:00.527Z,91.3
2018-03-02T06:22:00.530Z,91.2
2018-03-02T06:23:00.535Z,91.2
2018-03-02T06:24:00.542Z,90.92
2018-03-02T06:25:15.218Z,91.11
2018-03-02T06:26:00.303Z,90.73
2018-03-02T06:27:00.571Z,90.73
2018-03-02T06:29:00.325Z,90.41
2018-03-02T06:30:00.592Z,90.12
2018-03-02T06:31:00.595Z,89.56
2018-03-02T06:32:00.654Z,89.94
2018-03-02T06:33:00.618Z,89.28
2018-03-02T06:34:00.620Z,89.18
2018-03-02T06:35:00.630Z,88.9
2018-03-02T06:36:00.640Z,88.71
2018-03-02T06:37:00.691Z,88.9
2018-03-02T06:38:00.400Z,89.09
2018-03-02T06:39:00.409Z,89.09
2018-03-02T06:40:00.672Z,88.62
2018-03-02T06:41:15.350Z,88.43
2018-03-02T06:42:00.729Z,88.71
2018-03-02T06:44:00.710Z,87.86
2018-03-02T06:45:00.719Z,87.96
2018-03-02T06:46:00.738Z,87.68
2018-03-02T06:47:00.740Z,86.83
2018-03-02T06:48:00.755Z,86.73
2018-03-02T06:49:00.760Z,86.54
2018-03-02T06:50:00.517Z,86.07
2018-03-02T06:51:00.781Z,85.51
2018-03-02T06:52:00.792Z,85.88
2018-03-02T06:53:00.802Z,85.88
2018-03-02T06:54:00.814Z,85.88
2018-03-02T06:55:00.826Z,85.32
2018-03-02T06:56:00.835Z,85.13
2018-03-02T06:57:15.521Z,85.22
2018-03-02T06:58:00.858Z,85.32
2018-03-02T06:59:00.870Z,85.32
2018-03-02T07:00:00.881Z,84.94
2018-03-02T07:01:00.899Z,84.56
2018-03-02T07:02:00.910Z,84.47
2018-03-02T07:03:00.915Z,84
2018-03-02T07:04:00.927Z,84.47
2018-03-02T07:05:00.943Z,83.91
2018-03-02T07:06:00.952Z,83.62
2018-03-02T07:07:00.968Z,83.81
2018-03-02T07:08:00.978Z,83.53
2018-03-02T07:09:00.988Z,83.62
2018-03-02T07:10:01.001Z,83.62
2018-03-02T07:12:15.696Z,83.34
2018-03-02T07:13:01.043Z,82.68
2018-03-02T07:14:00.796Z,82.4
2018-03-02T07:16:00.822Z,82.4
2018-03-02T07:17:01.088Z,82.5
2018-03-02T07:18:01.102Z,82.31
2018-03-02T07:19:01.115Z,82.4
2018-03-02T07:20:01.129Z,82.31
2018-03-02T07:21:01.140Z,81.84
2018-03-02T07:22:01.153Z,81.46
2018-03-02T07:23:01.165Z,81.69
2018-03-02T07:24:01.179Z,81.56
2018-03-02T07:25:01.193Z,81.74
2018-03-02T07:26:01.205Z,81.65
2018-03-02T07:27:01.228Z,81.59
2018-03-02T07:28:01.231Z,81.31
2018-03-02T07:29:01.246Z,81.12
2018-03-02T07:30:01.259Z,80.46
2018-03-02T07:31:01.017Z,80.65
2018-03-02T07:32:01.290Z,80.08
2018-03-02T07:34:01.313Z,80.37
2018-03-02T07:35:01.336Z,79.99
2018-03-02T07:36:01.342Z,79.71
2018-03-02T07:37:01.352Z,79.71
2018-03-02T07:38:01.365Z,78.96
2018-03-02T07:39:01.379Z,78.77
2018-03-02T07:40:01.391Z,79.33
2018-03-02T07:41:01.404Z,78.58
2018-03-02T07:43:01.176Z,78.11
2018-03-02T07:44:16.130Z,78.2
2018-03-02T07:45:01.462Z,78.3
2018-03-02T07:49:01.516Z,77.55
2018-03-02T07:50:01.270Z,77.45
2018-03-02T07:51:01.537Z,77.64
2018-03-02T07:52:01.551Z,77.92
2018-03-02T07:53:01.310Z,77.83
2018-03-02T07:54:01.578Z,77.55
2018-03-02T07:55:01.588Z,77.92
2018-03-02T07:56:01.608Z,77.07
2018-03-02T07:57:01.388Z,76.79
2018-03-02T07:58:01.628Z,76.89
2018-03-02T07:59:01.387Z,76.13
2018-03-02T08:00:16.332Z,75.98
2018-03-02T08:01:01.674Z,75.51
2018-03-02T08:02:01.680Z,75.32
2018-03-02T08:04:01.717Z,75.04
2018-03-02T08:06:01.735Z,74.43
2018-03-02T08:07:01.745Z,74.9
2018-03-02T08:08:01.766Z,74.71
2018-03-02T08:09:01.773Z,75.09
2018-03-02T08:10:01.785Z,75.09
2018-03-02T08:11:01.795Z,74.71
2018-03-02T08:12:01.809Z,75.19
2018-03-02T08:13:01.821Z,75.66
2018-03-02T08:14:01.838Z,75.42
2018-03-02T08:15:01.852Z,74.76
2018-03-02T08:16:16.538Z,74.38
2018-03-02T08:17:01.886Z,74.66
2018-03-02T08:18:01.885Z,74.28
2018-03-02T08:19:01.898Z,74.28
2018-03-02T08:20:01.910Z,73.91
2018-03-02T08:21:01.921Z,74.28
2018-03-02T08:22:01.937Z,74.19
2018-03-02T08:23:01.946Z,73.72
2018-03-02T08:24:01.958Z,73.72
2018-03-02T08:25:01.975Z,73.91
2018-03-02T08:26:02.055Z,74
2018-03-02T08:27:01.740Z,74
2018-03-02T08:28:02.011Z,73.81
2018-03-02T08:29:02.021Z,74
2018-03-02T08:30:02.034Z,74
2018-03-02T08:31:01.789Z,73.91
2018-03-02T08:32:16.727Z,74.1
2018-03-02T08:33:01.814Z,73.91
2018-03-02T08:34:02.082Z,73.53
2018-03-02T08:35:02.093Z,73.43
2018-03-02T08:36:02.106Z,73.15
2018-03-02T08:37:02.126Z,73.53
2018-03-02T08:38:02.129Z,72.77
2018-03-02T08:39:02.144Z,72.49
2018-03-02T08:40:02.153Z,72.58
2018-03-02T08:41:02.165Z,72.21
2018-03-02T08:42:02.177Z,72.02
2018-03-02T08:43:02.191Z,71.92
2018-03-02T08:44:02.203Z,71.92
2018-03-02T08:45:02.214Z,72.02
2018-03-02T08:46:02.229Z,72.11
2018-03-02T08:47:16.909Z,72.4
2018-03-02T08:48:02.252Z,72.21
2018-03-02T08:49:02.009Z,72.21
2018-03-02T08:50:02.280Z,71.55
2018-03-02T08:51:02.291Z,71.17
2018-03-02T08:52:02.048Z,71.92
2018-03-02T08:53:02.312Z,70.98
2018-03-02T08:54:02.328Z,70.98
2018-03-02T08:55:02.341Z,70.79
2018-03-02T08:56:02.348Z,71.08
2018-03-02T08:57:02.108Z,71.17
2018-03-02T08:58:02.380Z,71.08
2018-03-02T08:59:02.387Z,71.17
2018-03-02T09:00:02.400Z,70.98
2018-03-02T09:01:02.421Z,70.79
2018-03-02T09:02:02.423Z,70.51
2018-03-02T09:03:02.181Z,70.79
2018-03-02T09:04:02.447Z,70.36
2018-03-02T09:05:02.462Z,70.17
2018-03-02T09:06:02.472Z,70.17
2018-03-02T09:07:02.228Z,70.32
2018-03-02T09:09:02.253Z,69.89
2018-03-02T09:10:02.520Z,69.7
2018-03-02T09:11:02.530Z,69.79
2018-03-02T09:12:02.289Z,69.79
2018-03-02T09:13:02.556Z,69.23
2018-03-02T09:14:02.313Z,69.04
2018-03-02T09:15:02.331Z,68.95
2018-03-02T09:16:02.596Z,69.13
2018-03-02T09:17:02.606Z,68.76
2018-03-02T09:18:02.616Z,68.57
2018-03-02T09:19:17.300Z,68.47
2018-03-02T09:20:02.646Z,68.66
2018-03-02T09:21:02.656Z,68.47
2018-03-02T09:22:02.667Z,68.66
2018-03-02T09:24:02.437Z,68.66
2018-03-02T09:25:02.450Z,68.19
2018-03-02T09:26:02.718Z,67.62
2018-03-02T09:27:02.732Z,68
2018-03-02T09:28:02.750Z,67.91
2018-03-02T09:29:02.765Z,67.43
2018-03-02T09:30:02.529Z,67.34
2018-03-02T09:31:02.530Z,67.62
2018-03-02T09:32:02.794Z,67.72
2018-03-02T09:33:02.804Z,67.34
2018-03-02T09:34:02.818Z,67.25
2018-03-02T09:35:17.499Z,67.34
2018-03-02T09:36:02.851Z,66.96
2018-03-02T09:37:02.854Z,67.34
2018-03-02T09:38:02.612Z,66.58
2018-03-02T09:39:02.625Z,66.4
2018-03-02T09:40:02.892Z,67.06
2018-03-02T09:41:02.649Z,67.06
2018-03-02T09:42:02.920Z,67.06
2018-03-02T09:43:02.930Z,66.49
2018-03-02T09:44:02.942Z,66.96
2018-03-02T09:45:02.957Z,67.25
2018-03-02T09:46:02.968Z,66.96
2018-03-02T09:47:02.982Z,66.77
2018-03-02T09:48:02.744Z,66.62
2018-03-02T09:49:03.005Z,65.92
2018-03-02T09:50:02.764Z,66.34
2018-03-02T09:51:17.700Z,65.39
2018-03-02T09:52:03.044Z,65.55
2018-03-02T09:53:03.060Z,65.67
2018-03-02T09:54:03.106Z,65.36
2018-03-02T09:56:03.095Z,65.55
2018-03-02T09:57:02.852Z,65.55
2018-03-02T09:58:03.134Z,65.92
2018-03-02T09:59:02.877Z,65.58
2018-03-02T10:00:02.890Z,65.77
2018-03-02T10:01:03.236Z,65.77
2018-03-02T10:02:02.916Z,65.67
2018-03-02T10:03:02.928Z,65.2
2018-03-02T10:04:03.201Z,65.45
2018-03-02T10:05:02.954Z,65.64
2018-03-02T10:06:02.966Z,65.48
2018-03-02T10:07:17.903Z,65.01
2018-03-02T10:08:03.248Z,65.39
2018-03-02T10:09:03.263Z,65.39
2018-03-02T10:11:03.030Z,65.01
2018-03-02T10:12:03.297Z,64.64
2018-03-02T10:13:03.310Z,64.73
2018-03-02T10:14:03.068Z,64.45
2018-03-02T10:15:03.334Z,64.45
2018-03-02T10:16:03.349Z,63.6
2018-03-02T10:17:03.363Z,63.7
2018-03-02T10:18:03.380Z,63.6
2018-03-02T10:19:03.388Z,63.79
2018-03-02T10:20:03.145Z,63.7
2018-03-02T10:21:03.422Z,64.17
2018-03-02T10:22:18.095Z,64.26
2018-03-02T10:23:03.441Z,64.17
2018-03-02T10:24:03.451Z,64.07
2018-03-02T10:25:03.466Z,64.07
2018-03-02T10:26:03.478Z,64.17
2018-03-02T10:27:03.492Z,63.79
2018-03-02T10:28:03.507Z,63.6
2018-03-02T10:29:03.522Z,63.89
2018-03-02T10:30:03.273Z,63.6
2018-03-02T10:31:03.285Z,63.7
2018-03-02T10:32:03.555Z,63.6
2018-03-02T10:34:03.324Z,63.7
2018-03-02T10:35:03.335Z,63.7
2018-03-02T10:36:03.606Z,63.79
2018-03-02T10:37:03.616Z,63.79
2018-03-02T10:38:03.636Z,63.98
2018-03-02T10:39:03.644Z,64.07
2018-03-02T10:40:03.651Z,63.89
2018-03-02T10:43:03.432Z,63.41
2018-03-02T10:44:03.707Z,63.98
2018-03-02T10:45:03.712Z,63.6
2018-03-02T10:46:03.725Z,63.89
2018-03-02T10:47:03.758Z,63.7
2018-03-02T10:48:03.491Z,64.07
2018-03-02T10:49:03.758Z,63.51
2018-03-02T10:50:03.770Z,63.22
2018-03-02T10:51:03.781Z,63.6
2018-03-02T10:52:03.797Z,62.66
2018-03-02T10:53:03.805Z,62.56
2018-03-02T10:54:18.484Z,62.56
2018-03-02T10:55:03.827Z,61.99
2018-03-02T10:56:03.841Z,62.18
2018-03-02T10:58:03.607Z,62.66
2018-03-02T10:59:03.875Z,62.56
2018-03-02T11:00:03.630Z,62.28
2018-03-02T11:01:03.640Z,62.37
2018-03-02T11:02:03.929Z,62.66
2018-03-02T11:03:03.928Z,62.47
2018-03-02T11:04:03.929Z,61.99
2018-03-02T11:05:03.685Z,61.99
2018-03-02T11:06:03.951Z,61.9
2018-03-02T11:07:03.969Z,62.18
2018-03-02T11:08:04.049Z,61.52
2018-03-02T11:09:04.030Z,61.43
2018-03-02T11:10:18.665Z,61.99
2018-03-02T11:14:03.795Z,61.71
2018-03-02T11:15:04.053Z,61.52
2018-03-02T11:16:04.063Z,61.43
2018-03-02T11:17:03.819Z,61.71
2018-03-02T11:18:04.086Z,61.61
2018-03-02T11:19:04.096Z,61.52
2018-03-02T11:20:04.107Z,61.52
2018-03-02T11:21:04.119Z,61.52
2018-03-02T11:22:04.130Z,61.61
2018-03-02T11:23:04.140Z,61.33
2018-03-02T11:24:03.896Z,61.33
2018-03-02T11:25:04.165Z,61.05
2018-03-02T11:26:18.841Z,61.52
2018-03-02T11:27:04.185Z,61.43
2018-03-02T11:28:04.195Z,61.71
2018-03-02T11:29:04.314Z,61.43
2018-03-02T11:31:04.229Z,61.43
2018-03-02T11:32:03.985Z,60.86
2018-03-02T11:33:04.252Z,60.86
2018-03-02T11:34:04.006Z,60.96
2018-03-02T11:35:04.273Z,60.39
2018-03-02T11:36:04.284Z,60.3
2018-03-02T11:37:04.294Z,60.58
2018-03-02T11:38:04.305Z,60.21
2018-03-02T11:39:04.316Z,60.49
2018-03-02T11:40:04.328Z,60.3
2018-03-02T11:41:04.342Z,60.3
2018-03-02T11:42:19.018Z,60.77
2018-03-02T11:43:04.361Z,60.52
2018-03-02T11:44:04.376Z,59.86
2018-03-02T11:45:04.392Z,59.76
2018-03-02T11:46:04.399Z,59.57
2018-03-02T11:47:04.492Z,59.76
2018-03-02T11:48:04.414Z,59.54
2018-03-02T11:49:04.426Z,59.29
2018-03-02T11:50:04.182Z,59.76
2018-03-02T11:51:04.193Z,59.76
2018-03-02T11:52:04.203Z,59.86
2018-03-02T11:53:04.481Z,59.29
2018-03-02T11:54:04.480Z,59.67
2018-03-02T11:55:04.492Z,59.67
2018-03-02T11:56:04.503Z,59.83
2018-03-02T11:57:19.183Z,59.73
2018-03-02T11:58:04.271Z,59.83
2018-03-02T11:59:04.536Z,59.83
2018-03-02T12:00:04.552Z,59.83
2018-03-02T12:01:04.303Z,59.73
2018-03-02T12:02:04.573Z,59.73
2018-03-02T12:03:04.580Z,59.86
2018-03-02T12:04:04.607Z,59.67
2018-03-02T12:05:04.604Z,59.57
2018-03-02T12:06:04.613Z,59.57
2018-03-02T12:07:04.624Z,59.86
2018-03-02T12:08:04.638Z,59.19
2018-03-02T12:09:04.648Z,59.19
2018-03-02T12:10:04.658Z,59.38
2018-03-02T12:11:04.669Z,59.29
2018-03-02T12:12:04.680Z,59.48
2018-03-02T12:13:04.435Z,58.82
2018-03-02T12:14:04.701Z,59.29
2018-03-02T12:16:04.469Z,59.29
2018-03-02T12:17:04.479Z,58.82
2018-03-02T12:19:04.501Z,59
2018-03-02T12:20:04.768Z,59.1
2018-03-02T12:21:04.778Z,58.82
2018-03-02T12:22:04.793Z,58.82
2018-03-02T12:23:04.802Z,58.91
2018-03-02T12:24:04.812Z,59
2018-03-02T12:25:04.823Z,59
2018-03-02T12:26:04.838Z,58.53
2018-03-02T12:27:04.845Z,58.63
2018-03-02T12:28:04.855Z,58.53
2018-03-02T12:29:19.534Z,58.53
2018-03-02T12:30:04.878Z,58.88
2018-03-02T12:31:04.900Z,58.91
2018-03-02T12:32:04.900Z,58.69
2018-03-02T12:34:04.925Z,59.26
2018-03-02T12:35:04.980Z,59.35
2018-03-02T12:36:04.944Z,59.17
2018-03-02T12:37:04.954Z,59.19
2018-03-02T12:38:04.964Z,59.48
2018-03-02T12:39:04.983Z,58.91
2018-03-02T12:40:04.986Z,59.1
2018-03-02T12:41:04.999Z,59
2018-03-02T12:42:05.010Z,59.1
2018-03-02T12:43:05.018Z,59
2018-03-02T12:44:05.031Z,58.91
2018-03-02T12:45:19.710Z,58.63
2018-03-02T12:46:05.052Z,58.53
2018-03-02T12:47:05.062Z,58.91
2018-03-02T12:48:05.082Z,58.72
2018-03-02T12:49:05.111Z,58.82
2018-03-02T12:50:04.841Z,58.63
2018-03-02T12:51:05.106Z,58.63
2018-03-02T12:52:05.125Z,58.63
2018-03-02T12:53:05.128Z,59.1
2018-03-02T12:54:05.139Z,58.63
2018-03-02T12:55:04.909Z,58.82
2018-03-02T12:56:04.907Z,58.44
2018-03-02T12:57:05.173Z,58.44
2018-03-02T12:58:05.186Z,58.15
2018-03-02T12:59:05.196Z,58.44
2018-03-02T13:00:05.288Z,58.34
2018-03-02T13:01:19.886Z,58.53
2018-03-02T13:02:05.226Z,58.72
2018-03-02T13:04:05.248Z,58.53
2018-03-02T13:05:05.260Z,58.44
2018-03-02T13:06:05.272Z,58.91
2018-03-02T13:07:05.284Z,59.1
2018-03-02T13:08:05.297Z,58.44
2018-03-02T13:09:05.303Z,59
2018-03-02T13:10:05.061Z,58.91
2018-03-02T13:11:05.327Z,58.72
2018-03-02T13:12:05.336Z,58.63
2018-03-02T13:13:05.348Z,58.53
2018-03-02T13:14:05.366Z,59.1
2018-03-02T13:15:05.373Z,58.72
2018-03-02T13:16:05.382Z,58.63
2018-03-02T13:17:20.062Z,58.53
2018-03-02T13:18:05.404Z,58.63
2018-03-02T13:19:05.415Z,59.19
2018-03-02T13:20:05.430Z,59.1
2018-03-02T13:21:05.182Z,59.1
2018-03-02T13:22:05.447Z,59
2018-03-02T13:23:05.462Z,58.91
2018-03-02T13:24:05.477Z,59.19
2018-03-02T13:25:05.481Z,58.82
2018-03-02T13:26:05.492Z,58.91
2018-03-02T13:27:05.509Z,58.91
2018-03-02T13:28:05.515Z,58.91
2018-03-02T13:29:05.525Z,58.63
2018-03-02T13:30:05.282Z,58.63
2018-03-02T13:31:05.553Z,58.91
2018-03-02T13:32:20.228Z,59
2018-03-02T13:33:05.579Z,59
2018-03-02T13:34:05.582Z,58.25
2018-03-02T13:35:05.592Z,59.1
2018-03-02T13:36:05.617Z,58.82
2018-03-02T13:37:05.614Z,58.63
2018-03-02T13:38:05.630Z,58.91
2018-03-02T13:39:05.640Z,58.63
2018-03-02T13:40:05.648Z,58.44
2018-03-02T13:41:05.662Z,58.72
2018-03-02T13:42:05.668Z,58.72
2018-03-02T13:43:05.680Z,58.44
2018-03-02T13:44:05.692Z,58.34
2018-03-02T13:45:05.447Z,58.34
2018-03-02T13:46:05.714Z,58.72
2018-03-02T13:47:05.470Z,58.82
2018-03-02T13:48:05.481Z,58.34
2018-03-02T13:49:05.746Z,58.15
2018-03-02T13:50:05.764Z,58.63
2018-03-02T13:51:05.777Z,59
2018-03-02T13:52:05.780Z,58.82